createdAt,value
2023-06-30T00:01:34.771Z,98413.30
2023-06-30T00:05:15.980Z,98411.70
2023-06-30T00:08:11.081Z,98409.31
2023-06-30T00:11:05.450Z,98407.04
2023-06-30T00:14:22.988Z,98406.10
2023-06-30T00:17:40.020Z,98399.12
2023-06-30T00:22:19.197Z,98399.21
2023-06-30T00:25:58.482Z,98396.84
2023-06-30T00:29:37.685Z,98398.06
2023-06-30T00:33:16.991Z,98393.13
2023-06-30T00:36:56.142Z,98389.03
2023-06-30T00:40:36.417Z,98393.92
2023-06-30T00:44:15.686Z,98393.30
2023-06-30T00:47:54.962Z,98387.52
2023-06-30T00:51:34.226Z,98381.14
2023-06-30T00:55:13.436Z,98372.90
2023-06-30T00:58:43.176Z,98371.05
2023-06-30T01:02:30.185Z,98370.64
2023-06-30T01:05:55.922Z,98360.96
2023-06-30T01:08:58.203Z,98359.17
2023-06-30T01:11:52.913Z,98355.77
2023-06-30T01:14:49.315Z,98355.66
2023-06-30T01:17:48.174Z,98355.81
2023-06-30T01:20:42.922Z,98349.16
2023-06-30T01:23:35.742Z,98350.58
2023-06-30T01:26:16.901Z,98350.40
2023-06-30T01:29:11.970Z,98352.09
2023-06-30T01:32:08.340Z,98347.92
2023-06-30T01:35:03.572Z,98348.88
2023-06-30T01:38:59.049Z,98356.81
2023-06-30T01:43:37.387Z,98352.88
2023-06-30T01:47:47.979Z,98349.49
2023-06-30T01:51:34.661Z,98348.60
2023-06-30T01:55:01.294Z,98352.61
2023-06-30T01:58:18.281Z,98348.27
2023-06-30T02:01:59.633Z,98350.39
2023-06-30T02:05:41.921Z,98350.64
2023-06-30T02:09:23.769Z,98347.63
2023-06-30T02:12:41.711Z,98344.18
2023-06-30T02:16:00.106Z,98346.39
2023-06-30T02:18:56.166Z,98342.02
2023-06-30T02:21:50.469Z,98344.04
2023-06-30T02:24:44.713Z,98352.37
2023-06-30T02:27:30.142Z,98350.88
2023-06-30T02:30:23.846Z,98350.08
2023-06-30T02:33:19.006Z,98342.94
2023-06-30T02:36:13.776Z,98349.83
2023-06-30T02:38:59.251Z,98344.20
2023-06-30T02:41:53.438Z,98338.91
2023-06-30T02:44:47.616Z,98340.57
2023-06-30T02:47:41.764Z,98340.17
2023-06-30T02:50:24.350Z,98338.45
2023-06-30T02:53:18.716Z,98337.89
2023-06-30T02:56:12.813Z,98340.52
2023-06-30T02:59:06.986Z,98340.71
2023-06-30T03:02:01.619Z,98338.52
2023-06-30T03:04:44.883Z,98343.23
2023-06-30T03:07:28.523Z,98342.91
2023-06-30T03:10:07.058Z,98344.52
2023-06-30T03:13:01.329Z,98347.53
2023-06-30T03:15:55.884Z,98347.46
2023-06-30T03:18:49.823Z,98344.92
2023-06-30T03:21:43.684Z,98343.00
2023-06-30T03:24:37.610Z,98341.94
2023-06-30T03:27:14.356Z,98341.80
2023-06-30T03:30:10.302Z,98339.27
2023-06-30T03:33:04.445Z,98340.95
2023-06-30T03:35:58.890Z,98338.04
2023-06-30T03:38:53.127Z,98336.75
2023-06-30T03:41:47.249Z,98330.64
2023-06-30T03:44:31.578Z,98330.05
2023-06-30T03:47:25.982Z,98328.83
2023-06-30T03:50:20.341Z,98319.20
2023-06-30T03:52:57.521Z,98315.80
2023-06-30T03:55:37.130Z,98316.97
2023-06-30T03:58:22.642Z,98313.19
2023-06-30T04:01:16.773Z,98311.55
2023-06-30T04:04:10.931Z,98311.33
2023-06-30T04:07:05.500Z,98313.52
2023-06-30T04:09:59.343Z,98318.84
2023-06-30T04:12:38.788Z,98318.12
2023-06-30T04:15:33.027Z,98322.86
2023-06-30T04:18:12.402Z,98320.30
2023-06-30T04:21:06.537Z,98321.05
2023-06-30T04:24:00.439Z,98320.55
2023-06-30T04:26:46.052Z,98319.73
2023-06-30T04:29:24.693Z,98318.17
2023-06-30T04:32:02.449Z,98316.41
2023-06-30T04:34:59.403Z,98315.50
2023-06-30T04:37:54.058Z,98314.48
2023-06-30T04:40:33.598Z,98315.15
2023-06-30T04:43:16.677Z,98314.15
2023-06-30T04:46:10.505Z,98311.50
2023-06-30T04:48:56.993Z,98311.11
2023-06-30T04:51:34.231Z,98309.48
2023-06-30T04:54:28.338Z,98309.69
2023-06-30T04:57:22.526Z,98304.52
2023-06-30T05:00:07.873Z,98299.08
2023-06-30T05:02:52.244Z,98295.91
2023-06-30T05:05:37.641Z,98294.15
2023-06-30T05:08:31.523Z,98293.10
2023-06-30T05:11:12.524Z,98292.83
2023-06-30T05:13:49.533Z,98289.10
2023-06-30T05:16:27.053Z,98286.99
2023-06-30T05:19:06.252Z,98291.02
2023-06-30T05:21:45.700Z,98292.03
2023-06-30T05:24:25.323Z,98290.98
2023-06-30T05:27:05.035Z,98285.84
2023-06-30T05:29:42.171Z,98289.06
2023-06-30T05:32:21.948Z,98282.89
2023-06-30T05:35:16.172Z,98282.89
2023-06-30T05:38:10.469Z,98287.77
2023-06-30T05:40:48.319Z,98285.70
2023-06-30T05:43:42.110Z,98290.10
2023-06-30T05:46:21.326Z,98290.86
2023-06-30T05:49:15.764Z,98290.45
2023-06-30T05:51:55.360Z,98289.02
2023-06-30T05:54:49.637Z,98288.29
2023-06-30T05:57:43.892Z,98292.54
2023-06-30T06:00:29.832Z,98294.72
2023-06-30T06:03:07.306Z,98291.34
2023-06-30T06:06:01.522Z,98290.79
2023-06-30T06:08:55.705Z,98292.45
2023-06-30T06:11:41.204Z,98290.89
2023-06-30T06:14:35.687Z,98289.21
2023-06-30T06:17:12.207Z,98291.06
2023-06-30T06:19:58.111Z,98291.04
2023-06-30T06:22:52.011Z,98294.46
2023-06-30T06:25:31.096Z,98295.10
2023-06-30T06:28:25.289Z,98291.89
2023-06-30T06:31:08.519Z,98290.77
2023-06-30T06:34:02.729Z,98291.44
2023-06-30T06:36:47.129Z,98287.34
2023-06-30T06:39:40.927Z,98285.20
2023-06-30T06:42:17.968Z,98281.55
2023-06-30T06:44:56.894Z,98281.29
2023-06-30T06:48:21.974Z,98285.23
2023-06-30T06:50:57.009Z,98282.13
2023-06-30T06:53:33.924Z,98284.41
2023-06-30T06:56:08.526Z,98287.98
2023-06-30T06:58:44.259Z,98288.77
2023-06-30T07:01:19.984Z,98284.52
2023-06-30T07:03:53.551Z,98287.56
2023-06-30T07:06:29.473Z,98287.40
2023-06-30T07:09:03.007Z,98283.95
2023-06-30T07:11:36.517Z,98286.58
2023-06-30T07:14:10.077Z,98278.48
2023-06-30T07:17:03.831Z,98281.03
2023-06-30T07:19:57.754Z,98278.86
2023-06-30T07:22:52.187Z,98271.36
2023-06-30T07:25:46.632Z,98269.64
2023-06-30T07:28:23.505Z,98272.29
2023-06-30T07:31:18.222Z,98267.98
2023-06-30T07:34:03.447Z,98267.13
2023-06-30T07:36:57.343Z,98262.76
2023-06-30T07:39:33.122Z,98257.94
2023-06-30T07:42:27.094Z,98259.77
2023-06-30T07:45:21.610Z,98258.40
2023-06-30T07:48:15.497Z,98258.13
2023-06-30T07:51:11.900Z,98254.30
2023-06-30T07:54:05.611Z,98253.11
2023-06-30T07:56:59.402Z,98255.95
2023-06-30T07:59:53.238Z,98251.88
2023-06-30T08:02:47.499Z,98252.23
2023-06-30T08:05:41.733Z,98250.73
2023-06-30T08:08:36.737Z,98250.67
2023-06-30T08:11:31.815Z,98251.77
2023-06-30T08:14:26.008Z,98251.81
2023-06-30T08:17:21.807Z,98253.66
2023-06-30T08:20:17.357Z,98257.84
2023-06-30T08:22:56.665Z,98256.79
2023-06-30T08:25:33.485Z,98256.97
2023-06-30T08:28:27.236Z,98251.36
2023-06-30T08:31:22.231Z,98252.96
2023-06-30T08:34:06.711Z,98251.55
2023-06-30T08:36:49.849Z,98253.38
2023-06-30T08:39:26.034Z,98251.23
2023-06-30T08:42:05.686Z,98251.77
2023-06-30T08:44:51.201Z,98250.65
2023-06-30T08:47:36.903Z,98241.56
2023-06-30T08:50:31.466Z,98236.75
2023-06-30T08:53:15.665Z,98236.42
2023-06-30T08:56:11.920Z,98232.23
2023-06-30T08:59:06.233Z,98225.57
2023-06-30T09:02:01.208Z,98222.27
2023-06-30T09:04:38.788Z,98218.31
2023-06-30T09:07:40.977Z,98217.15
2023-06-30T09:10:38.338Z,98220.02
2023-06-30T09:13:32.770Z,98217.27
2023-06-30T09:16:20.014Z,98213.19
2023-06-30T09:19:14.988Z,98212.88
2023-06-30T09:21:54.702Z,98214.38
2023-06-30T09:24:31.452Z,98212.91
2023-06-30T09:27:14.432Z,98210.83
2023-06-30T09:30:10.164Z,98209.05
2023-06-30T09:33:04.693Z,98212.79
2023-06-30T09:36:01.473Z,98212.45
2023-06-30T09:39:01.371Z,98213.39
2023-06-30T09:41:56.370Z,98212.74
2023-06-30T09:44:54.133Z,98213.80
2023-06-30T09:47:54.296Z,98206.77
2023-06-30T09:50:39.377Z,98209.58
2023-06-30T09:53:39.052Z,98205.33
2023-06-30T09:56:33.656Z,98207.69
2023-06-30T09:59:29.707Z,98209.77
2023-06-30T10:02:06.167Z,98207.14
2023-06-30T10:05:00.135Z,98208.36
2023-06-30T10:07:54.024Z,98204.22
2023-06-30T10:10:28.153Z,98204.77
2023-06-30T10:13:03.860Z,98205.48
2023-06-30T10:15:39.006Z,98205.50
2023-06-30T10:18:15.208Z,98205.80
2023-06-30T10:20:51.616Z,98206.05
2023-06-30T10:23:28.327Z,98197.88
2023-06-30T10:26:03.863Z,98197.98
2023-06-30T10:28:37.987Z,98194.80
2023-06-30T10:31:11.969Z,98194.31
2023-06-30T10:33:46.010Z,98186.34
2023-06-30T10:36:40.547Z,98188.34
2023-06-30T10:39:34.985Z,98186.54
2023-06-30T10:42:37.762Z,98184.36
2023-06-30T10:45:37.616Z,98176.77
2023-06-30T10:48:32.014Z,98179.09
2023-06-30T10:51:35.802Z,98180.13
2023-06-30T10:54:31.317Z,98174.54
2023-06-30T10:57:29.584Z,98173.96
2023-06-30T11:00:30.631Z,98170.70
2023-06-30T11:03:24.525Z,98171.57
2023-06-30T11:06:25.134Z,98172.54
2023-06-30T11:09:19.888Z,98173.13
2023-06-30T11:12:16.532Z,98169.14
2023-06-30T11:15:25.658Z,98170.44
2023-06-30T11:18:23.606Z,98168.17
2023-06-30T11:21:17.711Z,98170.33
2023-06-30T11:24:19.651Z,98165.75
2023-06-30T11:27:13.517Z,98160.84
2023-06-30T11:30:08.924Z,98154.86
2023-06-30T11:33:03.867Z,98149.39
2023-06-30T11:36:00.599Z,98149.12
2023-06-30T11:38:55.165Z,98150.65
2023-06-30T11:41:49.209Z,98146.86
2023-06-30T11:44:37.096Z,98152.16
2023-06-30T11:47:31.455Z,98148.36
2023-06-30T11:50:13.283Z,98146.90
2023-06-30T11:53:07.168Z,98149.57
2023-06-30T11:56:03.049Z,98148.02
2023-06-30T11:58:38.493Z,98143.17
2023-06-30T12:01:24.079Z,98144.67
2023-06-30T12:04:39.310Z,98142.61
2023-06-30T12:07:34.741Z,98136.03
2023-06-30T12:10:21.222Z,98129.36
2023-06-30T12:13:15.256Z,98132.23
2023-06-30T12:16:10.020Z,98129.69
2023-06-30T12:18:49.889Z,98129.66
2023-06-30T12:21:57.773Z,98127.05
2023-06-30T12:24:57.544Z,98131.23
2023-06-30T12:27:52.581Z,98125.00
2023-06-30T12:30:49.032Z,98124.52
2023-06-30T12:33:25.885Z,98122.30
2023-06-30T12:36:05.961Z,98119.91
2023-06-30T12:38:45.203Z,98117.36
2023-06-30T12:41:34.325Z,98112.68
2023-06-30T12:44:28.409Z,98116.88
2023-06-30T12:47:22.323Z,98118.36
2023-06-30T12:50:06.010Z,98115.98
2023-06-30T12:53:03.086Z,98109.03
2023-06-30T12:55:42.225Z,98104.73
2023-06-30T12:58:36.058Z,98100.27
2023-06-30T13:01:30.361Z,98091.73
2023-06-30T13:04:06.853Z,98087.80
2023-06-30T13:07:01.258Z,98085.11
2023-06-30T13:09:55.449Z,98081.08
2023-06-30T13:12:49.193Z,98080.02
2023-06-30T13:15:43.396Z,98068.80
2023-06-30T13:18:37.356Z,98064.67
2023-06-30T13:21:21.590Z,98066.25
2023-06-30T13:23:58.448Z,98062.04
2023-06-30T13:26:36.147Z,98064.80
2023-06-30T13:29:13.635Z,98057.23
2023-06-30T13:32:08.106Z,98053.42
2023-06-30T13:34:48.583Z,98053.46
2023-06-30T13:37:42.770Z,98050.08
2023-06-30T13:40:36.501Z,98047.39
2023-06-30T13:43:10.218Z,98045.64
2023-06-30T13:46:04.345Z,98038.25
2023-06-30T13:48:58.430Z,98037.69
2023-06-30T13:51:37.634Z,98036.61
2023-06-30T13:54:21.733Z,98036.23
2023-06-30T13:57:15.580Z,98034.48
2023-06-30T13:59:55.030Z,98032.86
2023-06-30T14:02:37.196Z,98027.71
2023-06-30T14:05:20.032Z,98024.31
2023-06-30T14:08:13.824Z,98023.01
2023-06-30T14:11:00.026Z,98024.88
2023-06-30T14:13:55.461Z,98023.65
2023-06-30T14:16:49.485Z,98021.77
2023-06-30T14:19:34.794Z,98021.63
2023-06-30T14:22:13.717Z,98019.49
2023-06-30T14:24:50.441Z,98019.42
2023-06-30T14:27:24.090Z,98016.65
2023-06-30T14:30:03.761Z,98013.95
2023-06-30T14:32:58.219Z,98014.73
2023-06-30T14:35:52.055Z,98010.40
2023-06-30T14:38:35.119Z,98004.77
2023-06-30T14:41:28.806Z,98004.79
2023-06-30T14:44:23.075Z,97999.23
2023-06-30T14:47:01.213Z,98000.26
2023-06-30T14:49:37.959Z,97996.38
2023-06-30T14:52:17.084Z,97995.17
2023-06-30T14:54:56.421Z,97993.52
2023-06-30T14:57:51.192Z,97994.02
2023-06-30T15:00:44.992Z,97990.05
2023-06-30T15:03:39.378Z,97986.87
2023-06-30T15:06:24.416Z,97987.98
2023-06-30T15:09:08.787Z,97984.48
2023-06-30T15:11:59.265Z,97986.88
2023-06-30T15:14:44.568Z,97989.00
2023-06-30T15:17:38.435Z,97989.14
2023-06-30T15:20:21.259Z,97988.89
2023-06-30T15:23:15.032Z,97985.03
2023-06-30T15:26:08.959Z,97981.06
2023-06-30T15:28:45.506Z,97980.72
2023-06-30T15:31:40.765Z,97978.43
2023-06-30T15:34:17.843Z,97977.08
2023-06-30T15:37:11.696Z,97974.70
2023-06-30T15:40:06.054Z,97972.34
2023-06-30T15:42:48.305Z,97968.70
2023-06-30T15:45:27.517Z,97972.42
2023-06-30T15:48:21.644Z,97967.66
2023-06-30T15:51:16.449Z,97966.55
2023-06-30T15:53:55.567Z,97959.98
2023-06-30T15:56:35.217Z,97959.66
2023-06-30T15:59:11.945Z,97956.91
2023-06-30T16:01:56.074Z,97954.45
2023-06-30T16:04:39.376Z,97952.56
2023-06-30T16:07:18.647Z,97954.22
2023-06-30T16:10:13.965Z,97949.61
2023-06-30T16:12:51.112Z,97946.63
2023-06-30T16:15:45.699Z,97943.61
2023-06-30T16:18:30.842Z,97945.99
2023-06-30T16:21:15.120Z,97942.83
2023-06-30T16:23:58.251Z,97937.81
2023-06-30T16:26:37.313Z,97937.96
2023-06-30T16:29:38.205Z,97935.15
2023-06-30T16:32:22.904Z,97936.00
2023-06-30T16:35:17.177Z,97931.94
2023-06-30T16:38:02.491Z,97928.89
2023-06-30T16:40:38.983Z,97927.86
2023-06-30T16:43:33.137Z,97929.98
2023-06-30T16:46:16.020Z,97926.02
2023-06-30T16:49:09.773Z,97925.61
2023-06-30T16:51:53.675Z,97923.24
2023-06-30T16:54:32.536Z,97924.25
2023-06-30T16:57:15.253Z,97925.69
2023-06-30T17:00:11.854Z,97927.86
2023-06-30T17:02:56.678Z,97931.80
2023-06-30T17:05:36.367Z,97934.06
2023-06-30T17:08:21.198Z,97929.45
2023-06-30T17:11:15.293Z,97926.83
2023-06-30T17:13:54.481Z,97921.69
2023-06-30T17:16:31.311Z,97926.13
2023-06-30T17:19:10.289Z,97921.90
2023-06-30T17:22:04.479Z,97920.88
2023-06-30T17:24:48.937Z,97920.41
2023-06-30T17:27:42.765Z,97922.33
2023-06-30T17:30:36.703Z,97921.69
2023-06-30T17:33:21.823Z,97919.92
2023-06-30T17:36:07.506Z,97917.79
2023-06-30T17:39:02.922Z,97917.77
2023-06-30T17:41:41.933Z,97923.34
2023-06-30T17:44:37.713Z,97918.41
2023-06-30T17:47:22.806Z,97922.08
2023-06-30T17:50:18.346Z,97921.65
2023-06-30T17:52:57.938Z,97924.33
2023-06-30T17:55:37.054Z,97927.98
2023-06-30T17:58:14.393Z,97928.15
2023-06-30T18:00:50.730Z,97933.97
2023-06-30T18:03:35.673Z,97932.85
2023-06-30T18:06:30.377Z,97937.68
2023-06-30T18:09:09.858Z,97937.69
2023-06-30T18:11:45.773Z,97938.77
2023-06-30T18:14:40.651Z,97941.29
2023-06-30T18:17:25.032Z,97941.04
2023-06-30T18:20:19.091Z,97946.66
2023-06-30T18:23:12.886Z,97948.09
2023-06-30T18:26:07.454Z,97946.11
2023-06-30T18:29:01.655Z,97941.82
2023-06-30T18:31:59.175Z,97938.42
2023-06-30T18:34:54.403Z,97935.87
2023-06-30T18:37:38.065Z,97937.55
2023-06-30T18:40:31.970Z,97936.01
2023-06-30T18:43:16.217Z,97939.70
2023-06-30T18:46:00.373Z,97942.14
2023-06-30T18:48:38.170Z,97945.23
2023-06-30T18:51:21.519Z,97945.40
2023-06-30T18:54:15.639Z,97955.22
2023-06-30T18:56:58.889Z,97957.05
2023-06-30T18:59:44.391Z,97964.26
2023-06-30T19:02:32.266Z,97976.33
2023-06-30T19:05:12.572Z,97985.60
2023-06-30T19:07:52.003Z,97995.05
2023-06-30T19:10:47.231Z,98002.17
2023-06-30T19:13:24.411Z,98005.81
2023-06-30T19:16:18.348Z,98006.92
2023-06-30T19:19:12.582Z,98009.40
2023-06-30T19:22:07.350Z,98011.84
2023-06-30T19:25:01.225Z,98016.65
2023-06-30T19:27:40.831Z,98018.80
2023-06-30T19:30:28.221Z,98016.44
2023-06-30T19:33:29.143Z,98020.71
2023-06-30T19:36:14.391Z,98015.33
2023-06-30T19:39:08.727Z,98022.04
2023-06-30T19:41:46.363Z,98023.92
2023-06-30T19:44:40.952Z,98030.08
2023-06-30T19:47:35.505Z,98031.58
2023-06-30T19:50:16.241Z,98031.05
2023-06-30T19:53:01.688Z,98029.52
2023-06-30T19:55:46.190Z,98036.87
2023-06-30T19:58:29.890Z,98042.48
2023-06-30T20:01:08.982Z,98046.36
2023-06-30T20:03:51.476Z,98048.38
2023-06-30T20:06:45.806Z,98048.13
2023-06-30T20:09:39.856Z,98039.98
2023-06-30T20:12:33.709Z,98041.25
2023-06-30T20:15:14.346Z,98037.55
2023-06-30T20:18:10.084Z,98039.90
2023-06-30T20:21:05.431Z,98041.86
2023-06-30T20:23:42.513Z,98044.05
2023-06-30T20:26:26.894Z,98043.88
2023-06-30T20:29:06.279Z,98049.81
2023-06-30T20:31:46.024Z,98056.19
2023-06-30T20:34:41.724Z,98064.66
2023-06-30T20:37:21.095Z,98066.84
2023-06-30T20:40:16.218Z,98058.67
2023-06-30T20:42:59.271Z,98055.91
2023-06-30T20:45:49.563Z,98056.79
2023-06-30T20:48:34.950Z,98065.02
2023-06-30T20:51:14.085Z,98064.08
2023-06-30T20:53:53.730Z,98065.40
2023-06-30T20:56:34.013Z,98070.08
2023-06-30T20:59:10.954Z,98070.10
2023-06-30T21:01:51.012Z,98071.80
2023-06-30T21:04:28.019Z,98073.39
2023-06-30T21:07:05.576Z,98074.71
2023-06-30T21:09:59.433Z,98074.80
2023-06-30T21:12:43.475Z,98069.56
2023-06-30T21:15:37.765Z,98064.95
2023-06-30T21:18:22.623Z,98055.60
2023-06-30T21:21:06.176Z,98059.87
2023-06-30T21:23:48.982Z,98061.53
2023-06-30T21:26:28.079Z,98067.33
2023-06-30T21:29:04.983Z,98066.62
2023-06-30T21:31:49.129Z,98065.57
2023-06-30T21:34:26.132Z,98061.63
2023-06-30T21:37:20.710Z,98052.67
2023-06-30T21:40:02.244Z,98045.10
2023-06-30T21:42:57.472Z,98046.60
2023-06-30T21:45:51.896Z,98051.69
2023-06-30T21:48:37.297Z,98057.39
2023-06-30T21:51:16.554Z,98054.62
2023-06-30T21:54:08.044Z,98046.52
2023-06-30T21:57:01.942Z,98042.56
2023-06-30T21:59:56.331Z,98037.80
2023-06-30T22:02:48.078Z,98042.23
2023-06-30T22:05:42.271Z,98041.77
2023-06-30T22:08:38.893Z,98043.13
2023-06-30T22:11:32.860Z,98042.17
2023-06-30T22:14:27.656Z,98035.35
2023-06-30T22:17:22.127Z,98028.63
2023-06-30T22:20:03.127Z,98025.77
2023-06-30T22:22:46.291Z,98018.95
2023-06-30T22:25:40.767Z,98005.14
2023-06-30T22:28:14.499Z,98003.33
2023-06-30T22:31:08.450Z,98012.71
2023-06-30T22:33:53.394Z,98014.45
2023-06-30T22:36:44.888Z,98014.15
2023-06-30T22:40:04.882Z,98011.13
2023-06-30T22:42:58.441Z,97995.81
2023-06-30T22:45:52.491Z,98002.55
2023-06-30T22:48:46.434Z,98017.27
2023-06-30T22:51:29.496Z,98013.58
2023-06-30T22:54:23.810Z,98006.42
2023-06-30T22:57:18.022Z,98009.04
2023-06-30T22:59:55.113Z,98013.08
2023-06-30T23:02:49.079Z,98013.95
2023-06-30T23:05:43.122Z,98018.77
2023-06-30T23:08:36.985Z,98021.95
2023-06-30T23:11:30.943Z,98027.80
2023-06-30T23:14:25.335Z,98033.76
2023-06-30T23:17:25.825Z,98036.21
2023-06-30T23:20:03.846Z,98037.17
2023-06-30T23:22:50.948Z,98032.64
2023-06-30T23:25:45.522Z,98031.05
2023-06-30T23:28:30.124Z,98032.23
2023-06-30T23:31:22.553Z,98032.39
2023-06-30T23:34:03.414Z,98040.46
2023-06-30T23:36:57.527Z,98038.00
2023-06-30T23:39:37.969Z,98040.46
2023-06-30T23:42:31.777Z,98040.55
2023-06-30T23:45:16.107Z,98041.02
2023-06-30T23:47:53.857Z,98034.12
2023-06-30T23:50:34.835Z,98032.30
2023-06-30T23:53:17.582Z,98026.02
2023-06-30T23:56:01.884Z,98027.55
2023-06-30T23:58:58.030Z,98022.36
